sensor_id;sensor_type;location;lat;lon;timestamp;P1;durP1;ratioP1;P2;durP2;ratioP2
4198;SDS011;2113;50.946;14.610;2023-07-13T00:01:32;7.40;;;2.15;;
4198;SDS011;2113;50.946;14.610;2023-07-13T00:04:00;4.40;;;2.20;;
4198;SDS011;2113;50.946;14.610;2023-07-13T00:06:29;3.53;;;2.20;;
4198;SDS011;2113;50.946;14.610;2023-07-13T00:08:59;3.58;;;1.92;;
4198;SDS011;2113;50.946;14.610;2023-07-13T00:11:28;4.85;;;2.35;;
4198;SDS011;2113;50.946;14.610;2023-07-13T00:13:56;4.25;;;1.80;;
4198;SDS011;2113;50.946;14.610;2023-07-13T00:16:26;3.03;;;2.03;;
4198;SDS011;2113;50.946;14.610;2023-07-13T00:19:00;2.67;;;1.65;;
4198;SDS011;2113;50.946;14.610;2023-07-13T00:21:29;2.90;;;1.95;;
4198;SDS011;2113;50.946;14.610;2023-07-13T00:23:57;3.13;;;2.00;;
4198;SDS011;2113;50.946;14.610;2023-07-13T00:26:27;4.55;;;2.50;;
4198;SDS011;2113;50.946;14.610;2023-07-13T00:28:55;4.07;;;1.88;;
4198;SDS011;2113;50.946;14.610;2023-07-13T00:31:23;3.92;;;1.80;;
4198;SDS011;2113;50.946;14.610;2023-07-13T00:33:53;4.07;;;1.90;;
4198;SDS011;2113;50.946;14.610;2023-07-13T00:36:21;5.43;;;2.45;;
4198;SDS011;2113;50.946;14.610;2023-07-13T00:38:50;5.80;;;2.00;;
4198;SDS011;2113;50.946;14.610;2023-07-13T00:41:19;5.72;;;2.50;;
4198;SDS011;2113;50.946;14.610;2023-07-13T00:43:48;2.75;;;1.65;;
4198;SDS011;2113;50.946;14.610;2023-07-13T00:46:24;3.03;;;1.95;;
4198;SDS011;2113;50.946;14.610;2023-07-13T00:48:56;5.47;;;2.15;;
4198;SDS011;2113;50.946;14.610;2023-07-13T00:51:31;4.72;;;2.10;;
4198;SDS011;2113;50.946;14.610;2023-07-13T00:54:03;4.28;;;2.28;;
4198;SDS011;2113;50.946;14.610;2023-07-13T00:56:34;3.75;;;2.25;;
4198;SDS011;2113;50.946;14.610;2023-07-13T00:59:04;6.70;;;2.63;;
4198;SDS011;2113;50.946;14.610;2023-07-13T01:01:36;6.45;;;2.05;;
4198;SDS011;2113;50.946;14.610;2023-07-13T01:04:08;3.70;;;1.90;;
4198;SDS011;2113;50.946;14.610;2023-07-13T01:06:41;3.83;;;2.00;;
4198;SDS011;2113;50.946;14.610;2023-07-13T01:09:12;3.10;;;2.20;;
4198;SDS011;2113;50.946;14.610;2023-07-13T01:11:43;3.75;;;2.15;;
4198;SDS011;2113;50.946;14.610;2023-07-13T01:14:14;5.28;;;3.03;;
4198;SDS011;2113;50.946;14.610;2023-07-13T01:16:46;4.47;;;2.47;;
4198;SDS011;2113;50.946;14.610;2023-07-13T01:19:21;4.68;;;2.35;;
4198;SDS011;2113;50.946;14.610;2023-07-13T01:22:05;7.53;;;2.72;;
4198;SDS011;2113;50.946;14.610;2023-07-13T01:24:35;4.90;;;3.50;;
4198;SDS011;2113;50.946;14.610;2023-07-13T01:27:10;7.78;;;3.58;;
4198;SDS011;2113;50.946;14.610;2023-07-13T01:29:40;5.25;;;3.15;;
4198;SDS011;2113;50.946;14.610;2023-07-13T01:32:09;4.97;;;3.00;;
4198;SDS011;2113;50.946;14.610;2023-07-13T01:34:39;7.13;;;2.78;;
4198;SDS011;2113;50.946;14.610;2023-07-13T01:37:11;3.42;;;2.60;;
4198;SDS011;2113;50.946;14.610;2023-07-13T01:39:40;3.50;;;2.60;;
4198;SDS011;2113;50.946;14.610;2023-07-13T01:42:09;10.05;;;3.53;;
4198;SDS011;2113;50.946;14.610;2023-07-13T01:44:37;4.97;;;3.38;;
4198;SDS011;2113;50.946;14.610;2023-07-13T01:47:06;10.50;;;3.20;;
4198;SDS011;2113;50.946;14.610;2023-07-13T01:49:35;6.38;;;3.05;;
4198;SDS011;2113;50.946;14.610;2023-07-13T01:52:05;10.77;;;3.60;;
4198;SDS011;2113;50.946;14.610;2023-07-13T01:54:38;4.90;;;3.55;;
4198;SDS011;2113;50.946;14.610;2023-07-13T01:57:08;7.97;;;4.45;;
4198;SDS011;2113;50.946;14.610;2023-07-13T01:59:39;6.38;;;3.75;;
4198;SDS011;2113;50.946;14.610;2023-07-13T02:02:07;20.17;;;5.95;;
4198;SDS011;2113;50.946;14.610;2023-07-13T02:04:35;7.80;;;5.63;;
4198;SDS011;2113;50.946;14.610;2023-07-13T02:07:04;8.55;;;5.03;;
4198;SDS011;2113;50.946;14.610;2023-07-13T02:09:33;9.95;;;4.45;;
4198;SDS011;2113;50.946;14.610;2023-07-13T02:12:03;7.78;;;4.85;;
4198;SDS011;2113;50.946;14.610;2023-07-13T02:14:32;7.60;;;4.75;;
4198;SDS011;2113;50.946;14.610;2023-07-13T02:17:00;7.13;;;4.15;;
4198;SDS011;2113;50.946;14.610;2023-07-13T02:19:30;6.47;;;4.30;;
4198;SDS011;2113;50.946;14.610;2023-07-13T02:21:58;10.13;;;5.00;;
4198;SDS011;2113;50.946;14.610;2023-07-13T02:24:27;6.97;;;4.68;;
4198;SDS011;2113;50.946;14.610;2023-07-13T02:26:55;8.60;;;4.80;;
4198;SDS011;2113;50.946;14.610;2023-07-13T02:29:25;6.03;;;4.43;;
4198;SDS011;2113;50.946;14.610;2023-07-13T02:31:53;7.03;;;4.97;;
4198;SDS011;2113;50.946;14.610;2023-07-13T02:34:23;11.13;;;5.90;;
4198;SDS011;2113;50.946;14.610;2023-07-13T02:36:51;9.70;;;6.15;;
4198;SDS011;2113;50.946;14.610;2023-07-13T02:39:19;9.18;;;5.70;;
4198;SDS011;2113;50.946;14.610;2023-07-13T02:41:48;9.82;;;5.50;;
4198;SDS011;2113;50.946;14.610;2023-07-13T02:44:16;8.18;;;5.55;;
4198;SDS011;2113;50.946;14.610;2023-07-13T02:46:46;8.82;;;5.88;;
4198;SDS011;2113;50.946;14.610;2023-07-13T02:49:14;7.57;;;5.68;;
4198;SDS011;2113;50.946;14.610;2023-07-13T02:51:46;12.80;;;6.00;;
4198;SDS011;2113;50.946;14.610;2023-07-13T02:54:14;8.52;;;5.63;;
4198;SDS011;2113;50.946;14.610;2023-07-13T02:56:42;8.65;;;6.10;;
4198;SDS011;2113;50.946;14.610;2023-07-13T02:59:11;9.85;;;6.55;;
4198;SDS011;2113;50.946;14.610;2023-07-13T03:01:39;13.02;;;6.60;;
4198;SDS011;2113;50.946;14.610;2023-07-13T03:04:09;8.73;;;6.30;;
4198;SDS011;2113;50.946;14.610;2023-07-13T03:06:39;8.75;;;5.80;;
4198;SDS011;2113;50.946;14.610;2023-07-13T03:09:10;18.08;;;8.75;;
4198;SDS011;2113;50.946;14.610;2023-07-13T03:11:44;11.15;;;7.03;;
4198;SDS011;2113;50.946;14.610;2023-07-13T03:14:26;10.30;;;6.07;;
4198;SDS011;2113;50.946;14.610;2023-07-13T03:16:54;8.55;;;5.63;;
4198;SDS011;2113;50.946;14.610;2023-07-13T03:19:28;8.40;;;6.63;;
4198;SDS011;2113;50.946;14.610;2023-07-13T03:21:56;11.40;;;6.60;;
4198;SDS011;2113;50.946;14.610;2023-07-13T03:24:25;16.90;;;6.43;;
4198;SDS011;2113;50.946;14.610;2023-07-13T03:26:56;9.40;;;6.00;;
4198;SDS011;2113;50.946;14.610;2023-07-13T03:29:24;7.38;;;5.70;;
4198;SDS011;2113;50.946;14.610;2023-07-13T03:31:53;8.32;;;5.68;;
4198;SDS011;2113;50.946;14.610;2023-07-13T03:34:22;12.65;;;7.20;;
4198;SDS011;2113;50.946;14.610;2023-07-13T03:36:53;9.55;;;6.90;;
4198;SDS011;2113;50.946;14.610;2023-07-13T03:39:22;11.38;;;6.05;;
4198;SDS011;2113;50.946;14.610;2023-07-13T03:41:54;9.98;;;6.28;;
4198;SDS011;2113;50.946;14.610;2023-07-13T03:44:22;9.23;;;6.10;;
4198;SDS011;2113;50.946;14.610;2023-07-13T03:46:54;8.65;;;6.93;;
4198;SDS011;2113;50.946;14.610;2023-07-13T03:49:23;9.48;;;6.53;;
4198;SDS011;2113;50.946;14.610;2023-07-13T03:51:54;8.88;;;6.70;;
4198;SDS011;2113;50.946;14.610;2023-07-13T03:54:22;10.05;;;6.32;;
4198;SDS011;2113;50.946;14.610;2023-07-13T03:56:51;12.35;;;6.70;;
4198;SDS011;2113;50.946;14.610;2023-07-13T03:59:21;8.35;;;6.85;;
4198;SDS011;2113;50.946;14.610;2023-07-13T04:01:50;9.80;;;7.68;;
4198;SDS011;2113;50.946;14.610;2023-07-13T04:04:19;10.90;;;7.22;;
4198;SDS011;2113;50.946;14.610;2023-07-13T04:06:47;10.07;;;6.50;;
4198;SDS011;2113;50.946;14.610;2023-07-13T04:09:17;13.20;;;6.65;;
4198;SDS011;2113;50.946;14.610;2023-07-13T04:11:45;10.57;;;6.90;;
4198;SDS011;2113;50.946;14.610;2023-07-13T04:14:14;9.05;;;7.40;;
4198;SDS011;2113;50.946;14.610;2023-07-13T04:16:42;8.82;;;7.53;;
4198;SDS011;2113;50.946;14.610;2023-07-13T04:19:12;10.30;;;7.38;;
4198;SDS011;2113;50.946;14.610;2023-07-13T04:21:40;12.85;;;8.32;;
4198;SDS011;2113;50.946;14.610;2023-07-13T04:24:09;9.82;;;8.07;;
4198;SDS011;2113;50.946;14.610;2023-07-13T04:26:39;10.30;;;7.63;;
4198;SDS011;2113;50.946;14.610;2023-07-13T04:29:07;10.60;;;8.40;;
4198;SDS011;2113;50.946;14.610;2023-07-13T04:31:35;8.18;;;6.68;;
4198;SDS011;2113;50.946;14.610;2023-07-13T04:34:03;11.95;;;8.32;;
4198;SDS011;2113;50.946;14.610;2023-07-13T04:36:32;11.82;;;8.65;;
4198;SDS011;2113;50.946;14.610;2023-07-13T04:39:04;13.95;;;8.93;;
4198;SDS011;2113;50.946;14.610;2023-07-13T04:41:33;12.50;;;9.10;;
4198;SDS011;2113;50.946;14.610;2023-07-13T04:44:04;10.13;;;8.02;;
4198;SDS011;2113;50.946;14.610;2023-07-13T04:46:32;11.00;;;7.95;;
4198;SDS011;2113;50.946;14.610;2023-07-13T04:49:02;9.07;;;7.75;;
4198;SDS011;2113;50.946;14.610;2023-07-13T04:51:30;12.48;;;7.93;;
4198;SDS011;2113;50.946;14.610;2023-07-13T04:53:58;10.20;;;8.73;;
4198;SDS011;2113;50.946;14.610;2023-07-13T04:56:27;10.10;;;8.07;;
4198;SDS011;2113;50.946;14.610;2023-07-13T04:58:56;14.15;;;7.30;;
4198;SDS011;2113;50.946;14.610;2023-07-13T05:01:26;10.27;;;7.55;;
4198;SDS011;2113;50.946;14.610;2023-07-13T05:03:55;9.20;;;8.23;;
4198;SDS011;2113;50.946;14.610;2023-07-13T05:06:25;9.65;;;7.18;;
4198;SDS011;2113;50.946;14.610;2023-07-13T05:08:53;9.07;;;6.78;;
4198;SDS011;2113;50.946;14.610;2023-07-13T05:11:22;10.38;;;7.57;;
4198;SDS011;2113;50.946;14.610;2023-07-13T05:13:50;10.18;;;7.28;;
4198;SDS011;2113;50.946;14.610;2023-07-13T05:16:19;9.75;;;7.30;;
4198;SDS011;2113;50.946;14.610;2023-07-13T05:18:49;10.70;;;7.45;;
4198;SDS011;2113;50.946;14.610;2023-07-13T05:21:17;9.88;;;6.78;;
4198;SDS011;2113;50.946;14.610;2023-07-13T05:23:45;9.18;;;7.72;;
4198;SDS011;2113;50.946;14.610;2023-07-13T05:26:14;8.75;;;6.43;;
4198;SDS011;2113;50.946;14.610;2023-07-13T05:28:43;13.05;;;7.50;;
4198;SDS011;2113;50.946;14.610;2023-07-13T05:31:12;10.13;;;7.57;;
4198;SDS011;2113;50.946;14.610;2023-07-13T05:33:42;8.27;;;6.43;;
4198;SDS011;2113;50.946;14.610;2023-07-13T05:36:11;9.52;;;7.10;;
4198;SDS011;2113;50.946;14.610;2023-07-13T05:38:40;7.55;;;6.50;;
4198;SDS011;2113;50.946;14.610;2023-07-13T05:41:08;12.02;;;6.50;;
4198;SDS011;2113;50.946;14.610;2023-07-13T05:43:36;9.02;;;6.45;;
4198;SDS011;2113;50.946;14.610;2023-07-13T05:46:05;7.78;;;6.70;;
4198;SDS011;2113;50.946;14.610;2023-07-13T05:48:33;5.63;;;4.60;;
4198;SDS011;2113;50.946;14.610;2023-07-13T05:51:02;7.28;;;6.30;;
4198;SDS011;2113;50.946;14.610;2023-07-13T05:53:31;7.55;;;5.43;;
4198;SDS011;2113;50.946;14.610;2023-07-13T05:56:00;6.53;;;4.90;;
4198;SDS011;2113;50.946;14.610;2023-07-13T05:58:28;7.97;;;4.57;;
4198;SDS011;2113;50.946;14.610;2023-07-13T06:01:01;5.50;;;4.50;;
4198;SDS011;2113;50.946;14.610;2023-07-13T06:03:32;7.97;;;4.80;;
4198;SDS011;2113;50.946;14.610;2023-07-13T06:06:00;7.40;;;4.85;;
4198;SDS011;2113;50.946;14.610;2023-07-13T06:08:28;7.45;;;4.75;;
4198;SDS011;2113;50.946;14.610;2023-07-13T06:11:02;6.72;;;5.53;;
4198;SDS011;2113;50.946;14.610;2023-07-13T06:13:34;6.30;;;4.68;;
4198;SDS011;2113;50.946;14.610;2023-07-13T06:16:03;6.75;;;4.80;;
4198;SDS011;2113;50.946;14.610;2023-07-13T06:18:32;8.13;;;4.90;;
4198;SDS011;2113;50.946;14.610;2023-07-13T06:21:05;6.20;;;4.35;;
4198;SDS011;2113;50.946;14.610;2023-07-13T06:23:34;7.45;;;5.05;;
4198;SDS011;2113;50.946;14.610;2023-07-13T06:26:05;5.57;;;4.55;;
4198;SDS011;2113;50.946;14.610;2023-07-13T06:28:34;6.30;;;4.55;;
4198;SDS011;2113;50.946;14.610;2023-07-13T06:31:04;6.07;;;4.82;;
4198;SDS011;2113;50.946;14.610;2023-07-13T06:33:33;10.35;;;5.05;;
4198;SDS011;2113;50.946;14.610;2023-07-13T06:36:02;6.35;;;4.90;;
4198;SDS011;2113;50.946;14.610;2023-07-13T06:38:32;8.18;;;5.30;;
4198;SDS011;2113;50.946;14.610;2023-07-13T06:41:00;8.40;;;6.00;;
4198;SDS011;2113;50.946;14.610;2023-07-13T06:43:30;10.65;;;5.53;;
4198;SDS011;2113;50.946;14.610;2023-07-13T06:45:58;8.85;;;5.50;;
4198;SDS011;2113;50.946;14.610;2023-07-13T06:48:27;6.05;;;4.68;;
4198;SDS011;2113;50.946;14.610;2023-07-13T06:50:56;6.38;;;4.53;;
4198;SDS011;2113;50.946;14.610;2023-07-13T06:53:24;7.40;;;5.22;;
4198;SDS011;2113;50.946;14.610;2023-07-13T06:55:53;9.40;;;5.30;;
4198;SDS011;2113;50.946;14.610;2023-07-13T06:58:21;7.80;;;5.30;;
4198;SDS011;2113;50.946;14.610;2023-07-13T07:00:52;8.85;;;4.78;;
4198;SDS011;2113;50.946;14.610;2023-07-13T07:03:20;7.22;;;4.55;;
4198;SDS011;2113;50.946;14.610;2023-07-13T07:05:49;6.50;;;4.32;;
4198;SDS011;2113;50.946;14.610;2023-07-13T07:08:17;6.40;;;4.20;;
4198;SDS011;2113;50.946;14.610;2023-07-13T07:10:45;5.63;;;4.85;;
4198;SDS011;2113;50.946;14.610;2023-07-13T07:13:15;5.55;;;4.13;;
4198;SDS011;2113;50.946;14.610;2023-07-13T07:15:44;4.85;;;4.32;;
4198;SDS011;2113;50.946;14.610;2023-07-13T07:18:13;4.77;;;3.97;;
4198;SDS011;2113;50.946;14.610;2023-07-13T07:20:42;6.97;;;4.60;;
4198;SDS011;2113;50.946;14.610;2023-07-13T07:23:11;5.73;;;3.90;;
4198;SDS011;2113;50.946;14.610;2023-07-13T07:25:39;4.60;;;3.90;;
4198;SDS011;2113;50.946;14.610;2023-07-13T07:28:09;4.60;;;3.97;;
4198;SDS011;2113;50.946;14.610;2023-07-13T07:30:41;5.93;;;3.47;;
4198;SDS011;2113;50.946;14.610;2023-07-13T07:33:14;5.07;;;4.00;;
4198;SDS011;2113;50.946;14.610;2023-07-13T07:35:46;6.10;;;4.70;;
4198;SDS011;2113;50.946;14.610;2023-07-13T07:38:18;6.10;;;4.40;;
4198;SDS011;2113;50.946;14.610;2023-07-13T07:40:50;5.50;;;5.00;;
4198;SDS011;2113;50.946;14.610;2023-07-13T07:43:21;4.30;;;3.90;;
4198;SDS011;2113;50.946;14.610;2023-07-13T07:45:50;4.30;;;3.37;;
4198;SDS011;2113;50.946;14.610;2023-07-13T07:48:19;5.53;;;3.60;;
4198;SDS011;2113;50.946;14.610;2023-07-13T07:50:49;5.25;;;3.80;;
4198;SDS011;2113;50.946;14.610;2023-07-13T07:53:17;5.60;;;4.35;;
4198;SDS011;2113;50.946;14.610;2023-07-13T07:55:45;7.15;;;4.10;;
4198;SDS011;2113;50.946;14.610;2023-07-13T07:58:17;5.53;;;3.70;;
4198;SDS011;2113;50.946;14.610;2023-07-13T08:00:48;4.50;;;3.75;;
4198;SDS011;2113;50.946;14.610;2023-07-13T08:03:21;4.07;;;3.30;;
4198;SDS011;2113;50.946;14.610;2023-07-13T08:05:52;6.10;;;3.67;;
4198;SDS011;2113;50.946;14.610;2023-07-13T08:08:24;4.63;;;3.40;;
4198;SDS011;2113;50.946;14.610;2023-07-13T08:10:53;4.93;;;4.00;;
4198;SDS011;2113;50.946;14.610;2023-07-13T08:13:27;4.67;;;3.30;;
4198;SDS011;2113;50.946;14.610;2023-07-13T08:15:55;5.70;;;3.80;;
4198;SDS011;2113;50.946;14.610;2023-07-13T08:18:25;5.70;;;3.60;;
4198;SDS011;2113;50.946;14.610;2023-07-13T08:20:54;5.20;;;3.83;;
4198;SDS011;2113;50.946;14.610;2023-07-13T08:23:23;4.40;;;3.63;;
4198;SDS011;2113;50.946;14.610;2023-07-13T08:25:52;4.90;;;4.00;;
4198;SDS011;2113;50.946;14.610;2023-07-13T08:28:21;5.10;;;3.07;;
4198;SDS011;2113;50.946;14.610;2023-07-13T08:30:50;4.30;;;3.63;;
4198;SDS011;2113;50.946;14.610;2023-07-13T08:33:19;4.47;;;2.80;;
4198;SDS011;2113;50.946;14.610;2023-07-13T08:35:52;4.03;;;3.00;;
4198;SDS011;2113;50.946;14.610;2023-07-13T08:38:20;6.53;;;2.50;;
4198;SDS011;2113;50.946;14.610;2023-07-13T08:40:50;3.20;;;2.20;;
4198;SDS011;2113;50.946;14.610;2023-07-13T08:43:21;3.87;;;2.60;;
4198;SDS011;2113;50.946;14.610;2023-07-13T08:45:54;4.17;;;2.57;;
4198;SDS011;2113;50.946;14.610;2023-07-13T08:48:27;3.93;;;2.40;;
4198;SDS011;2113;50.946;14.610;2023-07-13T08:51:02;3.60;;;2.77;;
4198;SDS011;2113;50.946;14.610;2023-07-13T08:53:38;6.50;;;3.10;;
4198;SDS011;2113;50.946;14.610;2023-07-13T08:56:16;7.10;;;3.00;;
4198;SDS011;2113;50.946;14.610;2023-07-13T08:58:48;4.13;;;2.63;;
4198;SDS011;2113;50.946;14.610;2023-07-13T09:01:22;3.80;;;2.57;;
4198;SDS011;2113;50.946;14.610;2023-07-13T09:03:57;4.97;;;2.63;;
4198;SDS011;2113;50.946;14.610;2023-07-13T09:06:33;3.10;;;2.23;;
4198;SDS011;2113;50.946;14.610;2023-07-13T09:09:10;4.43;;;2.37;;
4198;SDS011;2113;50.946;14.610;2023-07-13T09:11:49;6.13;;;3.97;;
4198;SDS011;2113;50.946;14.610;2023-07-13T09:14:28;7.77;;;2.63;;
4198;SDS011;2113;50.946;14.610;2023-07-13T09:17:05;5.13;;;2.37;;
4198;SDS011;2113;50.946;14.610;2023-07-13T09:19:38;3.80;;;2.20;;
4198;SDS011;2113;50.946;14.610;2023-07-13T09:22:12;3.60;;;2.13;;
4198;SDS011;2113;50.946;14.610;2023-07-13T09:24:49;6.10;;;2.67;;
4198;SDS011;2113;50.946;14.610;2023-07-13T09:27:24;3.33;;;2.23;;
4198;SDS011;2113;50.946;14.610;2023-07-13T09:29:58;3.63;;;2.20;;
4198;SDS011;2113;50.946;14.610;2023-07-13T09:32:37;3.50;;;2.10;;
4198;SDS011;2113;50.946;14.610;2023-07-13T09:35:10;5.03;;;2.00;;
4198;SDS011;2113;50.946;14.610;2023-07-13T09:37:45;3.40;;;2.50;;
4198;SDS011;2113;50.946;14.610;2023-07-13T09:40:17;7.00;;;2.00;;
4198;SDS011;2113;50.946;14.610;2023-07-13T09:42:50;3.63;;;1.50;;
4198;SDS011;2113;50.946;14.610;2023-07-13T09:45:26;5.43;;;2.10;;
4198;SDS011;2113;50.946;14.610;2023-07-13T09:48:02;4.07;;;1.97;;
4198;SDS011;2113;50.946;14.610;2023-07-13T09:50:33;3.10;;;1.60;;
4198;SDS011;2113;50.946;14.610;2023-07-13T09:53:03;4.80;;;1.97;;
4198;SDS011;2113;50.946;14.610;2023-07-13T09:55:32;4.30;;;2.60;;
4198;SDS011;2113;50.946;14.610;2023-07-13T09:58:04;5.37;;;2.73;;
4198;SDS011;2113;50.946;14.610;2023-07-13T10:00:37;3.83;;;2.90;;
4198;SDS011;2113;50.946;14.610;2023-07-13T10:03:14;5.87;;;2.63;;
4198;SDS011;2113;50.946;14.610;2023-07-13T10:05:48;4.60;;;2.37;;
4198;SDS011;2113;50.946;14.610;2023-07-13T10:08:20;4.70;;;2.30;;
4198;SDS011;2113;50.946;14.610;2023-07-13T10:10:52;4.17;;;2.83;;
4198;SDS011;2113;50.946;14.610;2023-07-13T10:13:28;3.27;;;2.10;;
4198;SDS011;2113;50.946;14.610;2023-07-13T10:15:59;3.30;;;2.30;;
4198;SDS011;2113;50.946;14.610;2023-07-13T10:18:29;4.43;;;2.40;;
4198;SDS011;2113;50.946;14.610;2023-07-13T10:21:09;5.40;;;2.17;;
4198;SDS011;2113;50.946;14.610;2023-07-13T10:23:45;3.37;;;2.50;;
4198;SDS011;2113;50.946;14.610;2023-07-13T10:26:18;8.50;;;3.53;;
4198;SDS011;2113;50.946;14.610;2023-07-13T10:28:51;4.67;;;3.03;;
4198;SDS011;2113;50.946;14.610;2023-07-13T10:31:22;8.37;;;3.77;;
4198;SDS011;2113;50.946;14.610;2023-07-13T10:33:50;3.93;;;2.30;;
4198;SDS011;2113;50.946;14.610;2023-07-13T10:36:28;7.57;;;2.70;;
4198;SDS011;2113;50.946;14.610;2023-07-13T10:39:04;3.97;;;2.83;;
4198;SDS011;2113;50.946;14.610;2023-07-13T10:41:34;3.70;;;2.23;;
4198;SDS011;2113;50.946;14.610;2023-07-13T10:44:09;4.60;;;2.70;;
4198;SDS011;2113;50.946;14.610;2023-07-13T10:46:46;6.00;;;2.90;;
4198;SDS011;2113;50.946;14.610;2023-07-13T10:49:16;5.97;;;2.13;;
4198;SDS011;2113;50.946;14.610;2023-07-13T10:51:45;4.23;;;2.47;;
4198;SDS011;2113;50.946;14.610;2023-07-13T10:54:16;7.43;;;2.77;;
4198;SDS011;2113;50.946;14.610;2023-07-13T10:56:50;8.50;;;2.77;;
4198;SDS011;2113;50.946;14.610;2023-07-13T10:59:23;8.23;;;2.20;;
4198;SDS011;2113;50.946;14.610;2023-07-13T11:01:56;8.20;;;2.07;;
4198;SDS011;2113;50.946;14.610;2023-07-13T11:04:27;3.07;;;2.03;;
4198;SDS011;2113;50.946;14.610;2023-07-13T11:07:10;2.73;;;1.90;;
4198;SDS011;2113;50.946;14.610;2023-07-13T11:09:51;5.47;;;2.63;;
4198;SDS011;2113;50.946;14.610;2023-07-13T11:12:28;5.30;;;2.27;;
4198;SDS011;2113;50.946;14.610;2023-07-13T11:15:12;4.00;;;2.20;;
4198;SDS011;2113;50.946;14.610;2023-07-13T11:17:48;3.23;;;2.40;;
4198;SDS011;2113;50.946;14.610;2023-07-13T11:20:22;3.33;;;1.83;;
4198;SDS011;2113;50.946;14.610;2023-07-13T11:26:01;5.00;;;2.47;;
4198;SDS011;2113;50.946;14.610;2023-07-13T11:28:30;3.77;;;1.93;;
4198;SDS011;2113;50.946;14.610;2023-07-13T11:31:01;4.87;;;1.77;;
4198;SDS011;2113;50.946;14.610;2023-07-13T11:33:51;4.00;;;2.07;;
4198;SDS011;2113;50.946;14.610;2023-07-13T11:36:21;5.70;;;2.07;;
4198;SDS011;2113;50.946;14.610;2023-07-13T11:38:55;5.80;;;1.80;;
4198;SDS011;2113;50.946;14.610;2023-07-13T11:41:31;6.80;;;2.30;;
4198;SDS011;2113;50.946;14.610;2023-07-13T11:44:09;4.47;;;2.47;;
4198;SDS011;2113;50.946;14.610;2023-07-13T11:46:44;4.50;;;2.30;;
4198;SDS011;2113;50.946;14.610;2023-07-13T11:49:18;2.90;;;2.07;;
4198;SDS011;2113;50.946;14.610;2023-07-13T11:51:50;4.47;;;2.20;;
4198;SDS011;2113;50.946;14.610;2023-07-13T11:54:24;5.03;;;1.93;;
4198;SDS011;2113;50.946;14.610;2023-07-13T11:56:57;3.20;;;2.00;;
4198;SDS011;2113;50.946;14.610;2023-07-13T11:59:29;6.77;;;2.10;;
4198;SDS011;2113;50.946;14.610;2023-07-13T12:01:59;3.83;;;2.27;;
4198;SDS011;2113;50.946;14.610;2023-07-13T12:04:31;5.33;;;2.63;;
4198;SDS011;2113;50.946;14.610;2023-07-13T12:07:05;4.30;;;1.57;;
4198;SDS011;2113;50.946;14.610;2023-07-13T12:09:36;4.53;;;2.30;;
4198;SDS011;2113;50.946;14.610;2023-07-13T12:12:11;3.63;;;2.20;;
4198;SDS011;2113;50.946;14.610;2023-07-13T12:14:41;4.38;;;2.10;;
4198;SDS011;2113;50.946;14.610;2023-07-13T12:17:13;2.93;;;2.00;;
4198;SDS011;2113;50.946;14.610;2023-07-13T12:19:44;3.47;;;1.90;;
4198;SDS011;2113;50.946;14.610;2023-07-13T12:22:13;3.93;;;2.13;;
4198;SDS011;2113;50.946;14.610;2023-07-13T12:24:43;2.87;;;1.90;;
4198;SDS011;2113;50.946;14.610;2023-07-13T12:27:20;3.60;;;2.20;;
4198;SDS011;2113;50.946;14.610;2023-07-13T12:29:50;2.60;;;1.73;;
4198;SDS011;2113;50.946;14.610;2023-07-13T12:32:21;3.10;;;1.80;;
4198;SDS011;2113;50.946;14.610;2023-07-13T12:34:51;4.30;;;1.90;;
4198;SDS011;2113;50.946;14.610;2023-07-13T12:37:21;4.30;;;1.97;;
4198;SDS011;2113;50.946;14.610;2023-07-13T12:39:51;5.07;;;2.20;;
4198;SDS011;2113;50.946;14.610;2023-07-13T12:42:22;5.30;;;2.20;;
4198;SDS011;2113;50.946;14.610;2023-07-13T12:44:56;5.53;;;2.25;;
4198;SDS011;2113;50.946;14.610;2023-07-13T12:47:26;3.40;;;2.20;;
4198;SDS011;2113;50.946;14.610;2023-07-13T12:49:57;6.25;;;2.40;;
4198;SDS011;2113;50.946;14.610;2023-07-13T12:52:29;4.90;;;2.10;;
4198;SDS011;2113;50.946;14.610;2023-07-13T12:55:03;4.93;;;2.55;;
4198;SDS011;2113;50.946;14.610;2023-07-13T12:57:44;3.73;;;2.10;;
4198;SDS011;2113;50.946;14.610;2023-07-13T13:00:25;3.45;;;1.95;;
4198;SDS011;2113;50.946;14.610;2023-07-13T13:03:02;2.70;;;2.05;;
4198;SDS011;2113;50.946;14.610;2023-07-13T13:05:56;3.47;;;2.60;;
4198;SDS011;2113;50.946;14.610;2023-07-13T13:08:30;4.60;;;1.75;;
4198;SDS011;2113;50.946;14.610;2023-07-13T13:11:00;4.22;;;2.38;;
4198;SDS011;2113;50.946;14.610;2023-07-13T13:13:30;3.20;;;2.25;;
4198;SDS011;2113;50.946;14.610;2023-07-13T13:16:01;3.75;;;1.85;;
4198;SDS011;2113;50.946;14.610;2023-07-13T13:18:32;6.55;;;2.55;;
4198;SDS011;2113;50.946;14.610;2023-07-13T13:21:02;3.83;;;2.30;;
4198;SDS011;2113;50.946;14.610;2023-07-13T13:23:31;3.20;;;1.93;;
4198;SDS011;2113;50.946;14.610;2023-07-13T13:25:59;2.80;;;2.20;;
4198;SDS011;2113;50.946;14.610;2023-07-13T13:28:28;6.20;;;2.10;;
4198;SDS011;2113;50.946;14.610;2023-07-13T13:30:59;2.30;;;1.73;;
4198;SDS011;2113;50.946;14.610;2023-07-13T13:33:28;4.33;;;2.50;;
4198;SDS011;2113;50.946;14.610;2023-07-13T13:35:57;3.97;;;2.43;;
4198;SDS011;2113;50.946;14.610;2023-07-13T13:38:26;7.13;;;2.30;;
4198;SDS011;2113;50.946;14.610;2023-07-13T13:40:55;3.70;;;2.00;;
4198;SDS011;2113;50.946;14.610;2023-07-13T13:43:24;3.17;;;2.23;;
4198;SDS011;2113;50.946;14.610;2023-07-13T13:45:55;5.20;;;2.10;;
4198;SDS011;2113;50.946;14.610;2023-07-13T13:48:29;2.47;;;1.80;;
4198;SDS011;2113;50.946;14.610;2023-07-13T13:51:00;2.60;;;1.90;;
4198;SDS011;2113;50.946;14.610;2023-07-13T13:53:32;2.63;;;1.97;;
4198;SDS011;2113;50.946;14.610;2023-07-13T13:56:00;2.90;;;1.97;;
4198;SDS011;2113;50.946;14.610;2023-07-13T13:58:29;9.10;;;2.00;;
4198;SDS011;2113;50.946;14.610;2023-07-13T14:00:58;5.30;;;2.23;;
4198;SDS011;2113;50.946;14.610;2023-07-13T14:03:28;6.40;;;2.20;;
4198;SDS011;2113;50.946;14.610;2023-07-13T14:05:56;4.03;;;1.63;;
4198;SDS011;2113;50.946;14.610;2023-07-13T14:08:25;3.50;;;2.10;;
4198;SDS011;2113;50.946;14.610;2023-07-13T14:10:55;6.27;;;2.30;;
4198;SDS011;2113;50.946;14.610;2023-07-13T14:13:26;4.80;;;2.07;;
4198;SDS011;2113;50.946;14.610;2023-07-13T14:16:09;2.40;;;1.70;;
4198;SDS011;2113;50.946;14.610;2023-07-13T14:18:42;2.30;;;1.67;;
4198;SDS011;2113;50.946;14.610;2023-07-13T14:21:11;4.37;;;2.20;;
4198;SDS011;2113;50.946;14.610;2023-07-13T14:23:43;6.07;;;2.23;;
4198;SDS011;2113;50.946;14.610;2023-07-13T14:26:13;3.27;;;2.00;;
4198;SDS011;2113;50.946;14.610;2023-07-13T14:28:45;4.00;;;2.10;;
4198;SDS011;2113;50.946;14.610;2023-07-13T14:31:16;3.67;;;2.87;;
4198;SDS011;2113;50.946;14.610;2023-07-13T14:33:47;7.33;;;2.07;;
4198;SDS011;2113;50.946;14.610;2023-07-13T14:36:21;3.93;;;2.30;;
4198;SDS011;2113;50.946;14.610;2023-07-13T14:38:55;2.67;;;1.87;;
4198;SDS011;2113;50.946;14.610;2023-07-13T14:41:24;3.20;;;2.47;;
4198;SDS011;2113;50.946;14.610;2023-07-13T14:43:53;6.07;;;2.43;;
4198;SDS011;2113;50.946;14.610;2023-07-13T14:46:26;4.50;;;2.33;;
4198;SDS011;2113;50.946;14.610;2023-07-13T14:49:01;5.13;;;2.60;;
4198;SDS011;2113;50.946;14.610;2023-07-13T14:51:32;3.90;;;2.30;;
4198;SDS011;2113;50.946;14.610;2023-07-13T14:54:04;6.20;;;2.00;;
4198;SDS011;2113;50.946;14.610;2023-07-13T14:56:34;5.40;;;2.13;;
4198;SDS011;2113;50.946;14.610;2023-07-13T14:59:02;3.43;;;1.80;;
4198;SDS011;2113;50.946;14.610;2023-07-13T15:01:31;5.00;;;2.20;;
4198;SDS011;2113;50.946;14.610;2023-07-13T15:04:02;6.00;;;2.40;;
4198;SDS011;2113;50.946;14.610;2023-07-13T15:06:35;5.00;;;2.50;;
4198;SDS011;2113;50.946;14.610;2023-07-13T15:09:21;3.83;;;1.93;;
4198;SDS011;2113;50.946;14.610;2023-07-13T15:11:51;4.53;;;2.97;;
4198;SDS011;2113;50.946;14.610;2023-07-13T15:14:20;6.27;;;2.10;;
4198;SDS011;2113;50.946;14.610;2023-07-13T15:16:50;6.10;;;2.50;;
4198;SDS011;2113;50.946;14.610;2023-07-13T15:19:23;4.67;;;2.30;;
4198;SDS011;2113;50.946;14.610;2023-07-13T15:21:53;3.70;;;1.93;;
4198;SDS011;2113;50.946;14.610;2023-07-13T15:24:24;4.20;;;2.30;;
4198;SDS011;2113;50.946;14.610;2023-07-13T15:26:53;4.37;;;2.57;;